Manitou Springs, Colorado
Current Conditions -  °F | °C
As of 1:56 AM on Friday 31 Oct 2014 (Local Time) from KCWN Reporting Station
Clear Clear  
Wind Chill: 35°   Ceiling: Unl
Heat Index: 44°   Visibility: 10mi
Dew Point: 22°   Wind: 22mph
Humidity: 43%   Direction: 190°S
Pressure: 30.41"   Gusts: 28mph
Location:  38.86°N, 104.92°W
Report Text: KCWN 310756Z AUTO 19019G24KT 10SM CLR 07/M05 A3041 RMK AO2 SLP263 T00661053
Loading
Personal Weather Stations






























Interactive Weather Map New forecast layout! Learn more

10-Day Weather Forecast

Advertisements
Track Severe Weather on mobile